Time;durP1;ratioP1;P1;durP2;ratioP2;P2;SDS_P1;SDS_P2;PMS_P1;PMS_P2;Temp;Humidity;BMP_temperature;BMP_pressure;BME280_temperature;BME280_humidity;BME280_pressure;Samples;Min_cycle;Max_cycle;Signal;HPM_P1;HPM_P2
2021/05/11 00:00:49;;;;;;;3.200001;2.2;;;;;;;14.42;67.65625;94281.55;;;;
2021/05/11 00:01:50;;;;;;;3.200001;2.2;;;;;;;14.42;67.65625;94281.55;;;;
2021/05/11 00:02:50;;;;;;;4.2;1.8;;;;;;;14.29;67.8418;94285.44;;;;
2021/05/11 00:03:51;;;;;;;4.2;1.8;;;;;;;14.29;67.8418;94285.44;;;;
2021/05/11 00:04:52;;;;;;;4.2;1.8;;;;;;;14.29;67.8418;94285.44;;;;
2021/05/11 00:05:53;;;;;;;4.2;1.8;;;;;;;14.29;67.8418;94285.44;;;;
2021/05/11 00:06:53;;;;;;;4.2;1.8;;;;;;;14.29;67.8418;94285.44;;;;
2021/05/11 00:07:55;;;;;;;4.2;1.8;;;;;;;14.29;67.8418;94285.44;;;;
2021/05/11 00:08:56;;;;;;;4.2;1.8;;;;;;;14.29;67.8418;94285.44;;;;
2021/05/11 00:09:56;;;;;;;4.2;1.8;;;;;;;14.29;67.8418;94285.44;;;;
2021/05/11 00:10:58;;;;;;;4.2;1.8;;;;;;;14.29;67.8418;94285.44;;;;
2021/05/11 00:11:58;;;;;;;4.2;1.8;;;;;;;14.29;67.8418;94285.44;;;;
2021/05/11 00:12:59;;;;;;;1.9;1.75;;;;;;;14.11;68.3125;94302.64;;;;
2021/05/11 00:13:59;;;;;;;1.9;1.75;;;;;;;14.11;68.3125;94302.64;;;;
2021/05/11 00:15:00;;;;;;;1.9;1.75;;;;;;;14.11;68.3125;94302.64;;;;
2021/05/11 00:16:00;;;;;;;1.9;1.75;;;;;;;14.11;68.3125;94302.64;;;;
2021/05/11 00:17:01;;;;;;;1.9;1.75;;;;;;;14.11;68.3125;94302.64;;;;
2021/05/11 00:18:02;;;;;;;1.9;1.75;;;;;;;14.11;68.3125;94302.64;;;;
2021/05/11 00:19:05;;;;;;;1.9;1.75;;;;;;;14.11;68.3125;94302.64;;;;
2021/05/11 00:20:06;;;;;;;1.9;1.75;;;;;;;14.11;68.3125;94302.64;;;;
2021/05/11 00:21:07;;;;;;;1.9;1.75;;;;;;;14.11;68.3125;94302.64;;;;
2021/05/11 00:22:08;;;;;;;1.9;1.75;;;;;;;14.11;68.3125;94302.64;;;;
2021/05/11 00:23:09;;;;;;;1.9;1.75;;;;;;;14.11;68.3125;94302.64;;;;
2021/05/11 00:24:09;;;;;;;1.9;1.8;;;;;;;13.97;68.41016;94290.8;;;;
2021/05/11 00:25:10;;;;;;;1.9;1.8;;;;;;;13.97;68.41016;94290.8;;;;
2021/05/11 00:26:12;;;;;;;1.9;1.8;;;;;;;13.97;68.41016;94290.8;;;;
2021/05/11 00:27:12;;;;;;;1.9;1.8;;;;;;;13.97;68.41016;94290.8;;;;
2021/05/11 00:28:13;;;;;;;1.9;1.8;;;;;;;13.97;68.41016;94290.8;;;;
2021/05/11 00:29:13;;;;;;;1.9;1.8;;;;;;;13.97;68.41016;94290.8;;;;
2021/05/11 00:30:14;;;;;;;1.9;1.8;;;;;;;13.97;68.41016;94290.8;;;;
2021/05/11 00:31:15;;;;;;;1.9;1.8;;;;;;;13.97;68.41016;94290.8;;;;
2021/05/11 00:32:16;;;;;;;1.9;1.8;;;;;;;13.97;68.41016;94290.8;;;;
2021/05/11 00:33:17;;;;;;;1.9;1.8;;;;;;;13.97;68.41016;94290.8;;;;
2021/05/11 00:34:17;;;;;;;2.7;1.75;;;;;;;13.81;69.04199;94294.82;;;;
2021/05/11 00:35:18;;;;;;;2.7;1.75;;;;;;;13.81;69.04199;94294.82;;;;
2021/05/11 00:36:18;;;;;;;2.7;1.75;;;;;;;13.81;69.04199;94294.82;;;;
2021/05/11 00:37:19;;;;;;;2.7;1.75;;;;;;;13.81;69.04199;94294.82;;;;
2021/05/11 00:38:19;;;;;;;2.7;1.75;;;;;;;13.81;69.04199;94294.82;;;;
2021/05/11 00:39:20;;;;;;;2.7;1.75;;;;;;;13.81;69.04199;94294.82;;;;
2021/05/11 00:40:20;;;;;;;2.7;1.75;;;;;;;13.81;69.04199;94294.82;;;;
2021/05/11 00:41:21;;;;;;;2.7;1.75;;;;;;;13.81;69.04199;94294.82;;;;
2021/05/11 00:42:21;;;;;;;2.7;1.75;;;;;;;13.81;69.04199;94294.82;;;;
2021/05/11 00:43:22;;;;;;;2.7;1.75;;;;;;;13.81;69.04199;94294.82;;;;
2021/05/11 00:44:23;;;;;;;2.7;1.75;;;;;;;13.81;69.04199;94294.82;;;;
2021/05/11 00:45:27;;;;;;;3.85;1.8;;;;;;;13.63;69.42578;94290.28;;;;
2021/05/11 00:46:29;;;;;;;3.85;1.8;;;;;;;13.63;69.42578;94290.28;;;;
2021/05/11 00:47:30;;;;;;;3.85;1.8;;;;;;;13.63;69.42578;94290.28;;;;
2021/05/11 00:48:31;;;;;;;3.85;1.8;;;;;;;13.63;69.42578;94290.28;;;;
2021/05/11 00:49:32;;;;;;;3.85;1.8;;;;;;;13.63;69.42578;94290.28;;;;
2021/05/11 00:50:34;;;;;;;3.85;1.8;;;;;;;13.63;69.42578;94290.28;;;;
2021/05/11 00:51:35;;;;;;;3.85;1.8;;;;;;;13.63;69.42578;94290.28;;;;
2021/05/11 00:52:35;;;;;;;3.85;1.8;;;;;;;13.63;69.42578;94290.28;;;;
2021/05/11 00:53:38;;;;;;;3.85;1.8;;;;;;;13.63;69.42578;94290.28;;;;
2021/05/11 00:54:39;;;;;;;3.85;1.8;;;;;;;13.63;69.42578;94290.28;;;;
2021/05/11 00:55:40;;;;;;;1.8;1.6;;;;;;;13.52;69.62207;94291.57;;;;
2021/05/11 00:56:41;;;;;;;1.8;1.6;;;;;;;13.52;69.62207;94291.57;;;;
2021/05/11 00:57:42;;;;;;;1.8;1.6;;;;;;;13.52;69.62207;94291.57;;;;
2021/05/11 00:58:43;;;;;;;1.8;1.6;;;;;;;13.52;69.62207;94291.57;;;;
2021/05/11 00:59:44;;;;;;;1.8;1.6;;;;;;;13.52;69.62207;94291.57;;;;
2021/05/11 01:00:44;;;;;;;1.8;1.6;;;;;;;13.52;69.62207;94291.57;;;;
2021/05/11 01:01:45;;;;;;;1.8;1.6;;;;;;;13.52;69.62207;94291.57;;;;
2021/05/11 01:02:46;;;;;;;1.8;1.6;;;;;;;13.52;69.62207;94291.57;;;;
2021/05/11 01:03:46;;;;;;;1.8;1.6;;;;;;;13.52;69.62207;94291.57;;;;
2021/05/11 01:04:46;;;;;;;1.8;1.6;;;;;;;13.52;69.62207;94291.57;;;;
2021/05/11 01:05:47;;;;;;;1.8;1.6;;;;;;;13.52;69.62207;94291.57;;;;
2021/05/11 01:06:47;;;;;;;3.1;1.5;;;;;;;13.39;69.80566;94294.87;;;;
2021/05/11 01:07:48;;;;;;;3.1;1.5;;;;;;;13.39;69.80566;94294.87;;;;
2021/05/11 01:08:49;;;;;;;3.1;1.5;;;;;;;13.39;69.80566;94294.87;;;;
2021/05/11 01:09:49;;;;;;;3.1;1.5;;;;;;;13.39;69.80566;94294.87;;;;
2021/05/11 01:10:50;;;;;;;3.1;1.5;;;;;;;13.39;69.80566;94294.87;;;;
2021/05/11 01:11:50;;;;;;;3.1;1.5;;;;;;;13.39;69.80566;94294.87;;;;
2021/05/11 01:12:51;;;;;;;3.1;1.5;;;;;;;13.39;69.80566;94294.87;;;;
2021/05/11 01:13:52;;;;;;;3.1;1.5;;;;;;;13.39;69.80566;94294.87;;;;
2021/05/11 01:14:52;;;;;;;3.1;1.5;;;;;;;13.39;69.80566;94294.87;;;;
2021/05/11 01:15:53;;;;;;;3.1;1.5;;;;;;;13.39;69.80566;94294.87;;;;
2021/05/11 01:16:55;;;;;;;3.1;1.5;;;;;;;13.39;69.80566;94294.87;;;;
2021/05/11 01:18:01;;;;;;;2.6;1.5;;;;;;;13.24;70.29004;94284.89;;;;
2021/05/11 01:19:06;;;;;;;2.6;1.5;;;;;;;13.24;70.29004;94284.89;;;;
2021/05/11 01:20:14;;;;;;;2.6;1.5;;;;;;;13.24;70.29004;94284.89;;;;
2021/05/11 01:21:26;;;;;;;2.6;1.5;;;;;;;13.24;70.29004;94284.89;;;;
2021/05/11 01:22:45;;;;;;;2.6;1.5;;;;;;;13.24;70.29004;94284.89;;;;
2021/05/11 01:24:00;;;;;;;2.6;1.5;;;;;;;13.24;70.29004;94284.89;;;;
2021/05/11 01:25:03;;;;;;;2.6;1.5;;;;;;;13.24;70.29004;94284.89;;;;
2021/05/11 01:26:09;;;;;;;2.6;1.5;;;;;;;13.24;70.29004;94284.89;;;;
2021/05/11 01:27:22;;;;;;;2.6;1.5;;;;;;;13.24;70.29004;94284.89;;;;
2021/05/11 01:28:27;;;;;;;1.8;1.6;;;;;;;13.09;70.56738;94247.96;;;;
2021/05/11 01:29:38;;;;;;;1.8;1.6;;;;;;;13.09;70.56738;94247.96;;;;
2021/05/11 01:31:04;;;;;;;1.8;1.6;;;;;;;13.09;70.56738;94247.96;;;;
2021/05/11 01:32:25;;;;;;;1.8;1.6;;;;;;;13.09;70.56738;94247.96;;;;
2021/05/11 01:47:23;;;;;;;2;1.5;;;;;;;12.85;70.98242;94239.18;;;;
2021/05/11 01:48:32;;;;;;;2;1.5;;;;;;;12.85;70.98242;94239.18;;;;
2021/05/11 01:49:51;;;;;;;2.3;1.7;;;;;;;12.72;71.43457;94237.45;;;;
2021/05/11 01:51:05;;;;;;;2.3;1.7;;;;;;;12.72;71.43457;94237.45;;;;
2021/05/11 01:52:22;;;;;;;2.3;1.7;;;;;;;12.72;71.43457;94237.45;;;;
2021/05/11 01:53:39;;;;;;;2.3;1.7;;;;;;;12.72;71.43457;94237.45;;;;
2021/05/11 01:54:48;;;;;;;2.3;1.7;;;;;;;12.72;71.43457;94237.45;;;;
2021/05/11 01:56:01;;;;;;;2.3;1.7;;;;;;;12.72;71.43457;94237.45;;;;
2021/05/11 01:57:34;;;;;;;2.3;1.7;;;;;;;12.72;71.43457;94237.45;;;;
2021/05/11 02:24:37;;;;;;;1.65;1.5;;;;;;;12.28;72.74023;94221.03;;;;
2021/05/11 02:25:38;;;;;;;1.65;1.5;;;;;;;12.28;72.74023;94221.03;;;;
2021/05/11 02:26:38;;;;;;;1.65;1.5;;;;;;;12.28;72.74023;94221.03;;;;
2021/05/11 02:27:40;;;;;;;1.65;1.5;;;;;;;12.28;72.74023;94221.03;;;;
2021/05/11 02:28:40;;;;;;;1.65;1.5;;;;;;;12.28;72.74023;94221.03;;;;
2021/05/11 02:29:41;;;;;;;1.65;1.5;;;;;;;12.28;72.74023;94221.03;;;;
2021/05/11 02:30:41;;;;;;;1.65;1.5;;;;;;;12.28;72.74023;94221.03;;;;
2021/05/11 02:31:43;;;;;;;2.25;1.5;;;;;;;12.14;72.99609;94219.93;;;;
2021/05/11 02:32:43;;;;;;;2.25;1.5;;;;;;;12.14;72.99609;94219.93;;;;
2021/05/11 02:33:44;;;;;;;2.25;1.5;;;;;;;12.14;72.99609;94219.93;;;;
2021/05/11 02:34:44;;;;;;;2.25;1.5;;;;;;;12.14;72.99609;94219.93;;;;
2021/05/11 02:35:45;;;;;;;2.25;1.5;;;;;;;12.14;72.99609;94219.93;;;;
2021/05/11 02:36:45;;;;;;;2.25;1.5;;;;;;;12.14;72.99609;94219.93;;;;
2021/05/11 02:37:46;;;;;;;2.25;1.5;;;;;;;12.14;72.99609;94219.93;;;;
2021/05/11 02:38:47;;;;;;;2.25;1.5;;;;;;;12.14;72.99609;94219.93;;;;
2021/05/11 02:39:48;;;;;;;2.25;1.5;;;;;;;12.14;72.99609;94219.93;;;;
2021/05/11 02:40:48;;;;;;;2.25;1.5;;;;;;;12.14;72.99609;94219.93;;;;
2021/05/11 02:41:49;;;;;;;2.25;1.5;;;;;;;12.14;72.99609;94219.93;;;;
2021/05/11 02:42:53;;;;;;;2.45;1.6;;;;;;;11.91;73.49512;94229;;;;
2021/05/11 02:43:56;;;;;;;2.45;1.6;;;;;;;11.91;73.49512;94229;;;;
2021/05/11 02:44:57;;;;;;;2.45;1.6;;;;;;;11.91;73.49512;94229;;;;
2021/05/11 02:45:57;;;;;;;2.45;1.6;;;;;;;11.91;73.49512;94229;;;;
2021/05/11 02:46:58;;;;;;;2.45;1.6;;;;;;;11.91;73.49512;94229;;;;
2021/05/11 02:47:59;;;;;;;2.45;1.6;;;;;;;11.91;73.49512;94229;;;;
2021/05/11 02:49:00;;;;;;;2.45;1.6;;;;;;;11.91;73.49512;94229;;;;
2021/05/11 02:50:05;;;;;;;2.45;1.6;;;;;;;11.91;73.49512;94229;;;;
2021/05/11 02:51:06;;;;;;;2.45;1.6;;;;;;;11.91;73.49512;94229;;;;
2021/05/11 02:52:06;;;;;;;2.45;1.6;;;;;;;11.91;73.49512;94229;;;;
2021/05/11 02:53:07;;;;;;;1.6;1.5;;;;;;;11.73;74.31055;94215.18;;;;
2021/05/11 02:54:08;;;;;;;1.6;1.5;;;;;;;11.73;74.31055;94215.18;;;;
2021/05/11 02:55:08;;;;;;;1.6;1.5;;;;;;;11.73;74.31055;94215.18;;;;
2021/05/11 02:56:09;;;;;;;1.6;1.5;;;;;;;11.73;74.31055;94215.18;;;;
2021/05/11 02:57:10;;;;;;;1.6;1.5;;;;;;;11.73;74.31055;94215.18;;;;
2021/05/11 02:58:10;;;;;;;1.6;1.5;;;;;;;11.73;74.31055;94215.18;;;;
2021/05/11 02:59:11;;;;;;;1.6;1.5;;;;;;;11.73;74.31055;94215.18;;;;
2021/05/11 03:00:12;;;;;;;1.6;1.5;;;;;;;11.73;74.31055;94215.18;;;;
2021/05/11 03:01:15;;;;;;;1.6;1.5;;;;;;;11.73;74.31055;94215.18;;;;
2021/05/11 03:02:16;;;;;;;1.6;1.5;;;;;;;11.73;74.31055;94215.18;;;;
2021/05/11 03:03:17;;;;;;;1.6;1.5;;;;;;;11.73;74.31055;94215.18;;;;
2021/05/11 03:04:17;;;;;;;1.8;1.7;;;;;;;11.57;74.68066;94214.33;;;;
2021/05/11 03:05:18;;;;;;;1.8;1.7;;;;;;;11.57;74.68066;94214.33;;;;
2021/05/11 03:06:19;;;;;;;1.8;1.7;;;;;;;11.57;74.68066;94214.33;;;;
2021/05/11 03:07:19;;;;;;;1.8;1.7;;;;;;;11.57;74.68066;94214.33;;;;
2021/05/11 03:08:20;;;;;;;1.8;1.7;;;;;;;11.57;74.68066;94214.33;;;;
2021/05/11 03:09:20;;;;;;;1.8;1.7;;;;;;;11.57;74.68066;94214.33;;;;
2021/05/11 03:10:21;;;;;;;1.8;1.7;;;;;;;11.57;74.68066;94214.33;;;;
2021/05/11 03:11:21;;;;;;;1.8;1.7;;;;;;;11.57;74.68066;94214.33;;;;
2021/05/11 03:12:22;;;;;;;1.8;1.7;;;;;;;11.57;74.68066;94214.33;;;;
2021/05/11 03:13:22;;;;;;;1.8;1.7;;;;;;;11.57;74.68066;94214.33;;;;
2021/05/11 03:14:23;;;;;;;2.25;1.75;;;;;;;11.35;74.8584;94206.03;;;;
2021/05/11 03:15:24;;;;;;;2.25;1.75;;;;;;;11.35;74.8584;94206.03;;;;
2021/05/11 03:16:26;;;;;;;2.25;1.75;;;;;;;11.35;74.8584;94206.03;;;;
2021/05/11 03:17:26;;;;;;;2.25;1.75;;;;;;;11.35;74.8584;94206.03;;;;
2021/05/11 03:18:27;;;;;;;2.25;1.75;;;;;;;11.35;74.8584;94206.03;;;;
2021/05/11 03:19:28;;;;;;;2.25;1.75;;;;;;;11.35;74.8584;94206.03;;;;
2021/05/11 03:20:28;;;;;;;2.25;1.75;;;;;;;11.35;74.8584;94206.03;;;;
2021/05/11 03:21:29;;;;;;;2.25;1.75;;;;;;;11.35;74.8584;94206.03;;;;
2021/05/11 03:22:29;;;;;;;2.25;1.75;;;;;;;11.35;74.8584;94206.03;;;;
2021/05/11 03:23:30;;;;;;;2.25;1.75;;;;;;;11.35;74.8584;94206.03;;;;
2021/05/11 03:24:31;;;;;;;2.25;1.75;;;;;;;11.35;74.8584;94206.03;;;;
2021/05/11 03:25:31;;;;;;;3.5;2;;;;;;;11.26;75.38867;94209.55;;;;
2021/05/11 03:26:32;;;;;;;3.5;2;;;;;;;11.26;75.38867;94209.55;;;;
2021/05/11 03:27:32;;;;;;;3.5;2;;;;;;;11.26;75.38867;94209.55;;;;
2021/05/11 03:28:33;;;;;;;3.5;2;;;;;;;11.26;75.38867;94209.55;;;;
2021/05/11 03:29:33;;;;;;;3.5;2;;;;;;;11.26;75.38867;94209.55;;;;
2021/05/11 03:30:34;;;;;;;3.5;2;;;;;;;11.26;75.38867;94209.55;;;;
2021/05/11 03:31:34;;;;;;;3.5;2;;;;;;;11.26;75.38867;94209.55;;;;
2021/05/11 03:32:35;;;;;;;3.5;2;;;;;;;11.26;75.38867;94209.55;;;;
2021/05/11 03:33:35;;;;;;;3.5;2;;;;;;;11.26;75.38867;94209.55;;;;
2021/05/11 03:34:36;;;;;;;3.5;2;;;;;;;11.26;75.38867;94209.55;;;;
2021/05/11 03:35:37;;;;;;;3.5;2;;;;;;;11.26;75.38867;94209.55;;;;
2021/05/11 03:36:38;;;;;;;2;1.8;;;;;;;11.23;76.1875;94241.53;;;;
2021/05/11 03:37:38;;;;;;;2;1.8;;;;;;;11.23;76.1875;94241.53;;;;
2021/05/11 03:38:39;;;;;;;2;1.8;;;;;;;11.23;76.1875;94241.53;;;;
2021/05/11 03:39:41;;;;;;;2;1.8;;;;;;;11.23;76.1875;94241.53;;;;
2021/05/11 03:40:42;;;;;;;2;1.8;;;;;;;11.23;76.1875;94241.53;;;;
2021/05/11 03:41:45;;;;;;;2;1.8;;;;;;;11.23;76.1875;94241.53;;;;
2021/05/11 03:42:51;;;;;;;2;1.8;;;;;;;11.23;76.1875;94241.53;;;;
2021/05/11 03:43:55;;;;;;;2;1.8;;;;;;;11.23;76.1875;94241.53;;;;
2021/05/11 03:44:59;;;;;;;2;1.8;;;;;;;11.23;76.1875;94241.53;;;;
2021/05/11 03:46:04;;;;;;;2;1.8;;;;;;;11.23;76.1875;94241.53;;;;
2021/05/11 03:47:04;;;;;;;2.3;1.8;;;;;;;11.25;76.5332;94251.95;;;;
2021/05/11 03:48:05;;;;;;;2.3;1.8;;;;;;;11.25;76.5332;94251.95;;;;
2021/05/11 03:49:06;;;;;;;2.3;1.8;;;;;;;11.25;76.5332;94251.95;;;;
2021/05/11 03:50:07;;;;;;;2.3;1.8;;;;;;;11.25;76.5332;94251.95;;;;
2021/05/11 03:51:09;;;;;;;2.3;1.8;;;;;;;11.25;76.5332;94251.95;;;;
2021/05/11 03:52:09;;;;;;;2.3;1.8;;;;;;;11.25;76.5332;94251.95;;;;
2021/05/11 03:53:10;;;;;;;2.3;1.8;;;;;;;11.25;76.5332;94251.95;;;;
2021/05/11 03:54:11;;;;;;;2.3;1.8;;;;;;;11.25;76.5332;94251.95;;;;
2021/05/11 03:55:11;;;;;;;2.3;1.8;;;;;;;11.25;76.5332;94251.95;;;;
2021/05/11 03:56:13;;;;;;;2.3;1.8;;;;;;;11.25;76.5332;94251.95;;;;
2021/05/11 03:57:13;;;;;;;2.1;1.85;;;;;;;11.32;76.3623;94243.17;;;;
2021/05/11 03:58:14;;;;;;;2.1;1.85;;;;;;;11.32;76.3623;94243.17;;;;
2021/05/11 03:59:14;;;;;;;2.1;1.85;;;;;;;11.32;76.3623;94243.17;;;;
2021/05/11 04:00:15;;;;;;;2.1;1.85;;;;;;;11.32;76.3623;94243.17;;;;
2021/05/11 04:01:16;;;;;;;2.1;1.85;;;;;;;11.32;76.3623;94243.17;;;;
2021/05/11 04:02:17;;;;;;;2.1;1.85;;;;;;;11.32;76.3623;94243.17;;;;
2021/05/11 04:03:18;;;;;;;2.1;1.85;;;;;;;11.32;76.3623;94243.17;;;;
2021/05/11 04:04:19;;;;;;;2.1;1.85;;;;;;;11.32;76.3623;94243.17;;;;
2021/05/11 04:05:21;;;;;;;2.1;1.85;;;;;;;11.32;76.3623;94243.17;;;;
2021/05/11 04:06:21;;;;;;;2.1;1.85;;;;;;;11.32;76.3623;94243.17;;;;
2021/05/11 04:07:22;;;;;;;2.1;1.85;;;;;;;11.32;76.3623;94243.17;;;;
2021/05/11 04:08:35;;;;;;;1.8;1.7;;;;;;;11.3;76.38086;94227.8;;;;
2021/05/11 04:09:41;;;;;;;1.8;1.7;;;;;;;11.3;76.38086;94227.8;;;;
2021/05/11 04:10:44;;;;;;;1.8;1.7;;;;;;;11.3;76.38086;94227.8;;;;
2021/05/11 04:16:55;;;;;;;1.8;1.7;;;;;;;11.3;76.38086;94227.8;;;;
2021/05/11 04:17:55;;;;;;;1.8;1.7;;;;;;;11.3;76.38086;94227.8;;;;
2021/05/11 04:18:57;;;;;;;1.7;1.6;;;;;;;11.24;76.62793;94222.09;;;;
2021/05/11 04:19:57;;;;;;;1.7;1.6;;;;;;;11.24;76.62793;94222.09;;;;
2021/05/11 04:20:58;;;;;;;1.7;1.6;;;;;;;11.24;76.62793;94222.09;;;;
2021/05/11 04:21:58;;;;;;;1.7;1.6;;;;;;;11.24;76.62793;94222.09;;;;
2021/05/11 04:22:59;;;;;;;1.7;1.6;;;;;;;11.24;76.62793;94222.09;;;;
2021/05/11 04:23:59;;;;;;;1.7;1.6;;;;;;;11.24;76.62793;94222.09;;;;
2021/05/11 04:25:00;;;;;;;1.7;1.6;;;;;;;11.24;76.62793;94222.09;;;;
2021/05/11 04:26:01;;;;;;;1.7;1.6;;;;;;;11.24;76.62793;94222.09;;;;
2021/05/11 04:27:02;;;;;;;1.7;1.6;;;;;;;11.24;76.62793;94222.09;;;;
2021/05/11 04:28:03;;;;;;;1.7;1.6;;;;;;;11.24;76.62793;94222.09;;;;
2021/05/11 04:29:04;;;;;;;2.5;1.9;;;;;;;11.17;76.94629;94193.02;;;;
2021/05/11 04:30:04;;;;;;;2.5;1.9;;;;;;;11.17;76.94629;94193.02;;;;
2021/05/11 04:31:06;;;;;;;2.5;1.9;;;;;;;11.17;76.94629;94193.02;;;;
2021/05/11 04:32:08;;;;;;;2.5;1.9;;;;;;;11.17;76.94629;94193.02;;;;
2021/05/11 04:33:09;;;;;;;2.5;1.9;;;;;;;11.17;76.94629;94193.02;;;;
2021/05/11 04:34:09;;;;;;;2.5;1.9;;;;;;;11.17;76.94629;94193.02;;;;
2021/05/11 04:35:10;;;;;;;2.5;1.9;;;;;;;11.17;76.94629;94193.02;;;;
2021/05/11 04:36:11;;;;;;;2.5;1.9;;;;;;;11.17;76.94629;94193.02;;;;
2021/05/11 04:37:12;;;;;;;2.5;1.9;;;;;;;11.17;76.94629;94193.02;;;;
2021/05/11 04:38:13;;;;;;;2.5;1.9;;;;;;;11.17;76.94629;94193.02;;;;
2021/05/11 04:39:13;;;;;;;2.5;1.9;;;;;;;11.17;76.94629;94193.02;;;;
2021/05/11 04:40:14;;;;;;;2.2;1.8;;;;;;;11;77.5498;94207.7;;;;
2021/05/11 04:41:15;;;;;;;2.2;1.8;;;;;;;11;77.5498;94207.7;;;;
2021/05/11 04:42:16;;;;;;;2.2;1.8;;;;;;;11;77.5498;94207.7;;;;
2021/05/11 04:43:16;;;;;;;2.2;1.8;;;;;;;11;77.5498;94207.7;;;;
2021/05/11 04:44:20;;;;;;;2.2;1.8;;;;;;;11;77.5498;94207.7;;;;
2021/05/11 04:45:23;;;;;;;2.2;1.8;;;;;;;11;77.5498;94207.7;;;;
2021/05/11 04:46:27;;;;;;;2.2;1.8;;;;;;;11;77.5498;94207.7;;;;
2021/05/11 04:47:30;;;;;;;2.2;1.8;;;;;;;11;77.5498;94207.7;;;;
2021/05/11 04:48:32;;;;;;;2.2;1.8;;;;;;;11;77.5498;94207.7;;;;
2021/05/11 04:49:33;;;;;;;2.2;1.8;;;;;;;11;77.5498;94207.7;;;;
2021/05/11 04:50:34;;;;;;;2.6;1.9;;;;;;;10.92;78.13379;94197.55;;;;
2021/05/11 04:51:35;;;;;;;2.6;1.9;;;;;;;10.92;78.13379;94197.55;;;;
2021/05/11 04:52:35;;;;;;;2.6;1.9;;;;;;;10.92;78.13379;94197.55;;;;
2021/05/11 04:53:36;;;;;;;2.6;1.9;;;;;;;10.92;78.13379;94197.55;;;;
2021/05/11 04:54:36;;;;;;;2.6;1.9;;;;;;;10.92;78.13379;94197.55;;;;
2021/05/11 04:55:37;;;;;;;2.6;1.9;;;;;;;10.92;78.13379;94197.55;;;;
2021/05/11 04:56:37;;;;;;;2.6;1.9;;;;;;;10.92;78.13379;94197.55;;;;
2021/05/11 04:57:38;;;;;;;2.6;1.9;;;;;;;10.92;78.13379;94197.55;;;;
2021/05/11 04:58:39;;;;;;;2.6;1.9;;;;;;;10.92;78.13379;94197.55;;;;
2021/05/11 04:59:39;;;;;;;2.6;1.9;;;;;;;10.92;78.13379;94197.55;;;;
2021/05/11 05:00:40;;;;;;;2.6;1.9;;;;;;;10.92;78.13379;94197.55;;;;
2021/05/11 05:01:42;;;;;;;1.8;1.7;;;;;;;11;78.41602;94199.59;;;;
2021/05/11 05:02:45;;;;;;;1.8;1.7;;;;;;;11;78.41602;94199.59;;;;
2021/05/11 05:03:48;;;;;;;1.8;1.7;;;;;;;11;78.41602;94199.59;;;;
2021/05/11 05:04:48;;;;;;;1.8;1.7;;;;;;;11;78.41602;94199.59;;;;
2021/05/11 05:05:49;;;;;;;1.8;1.7;;;;;;;11;78.41602;94199.59;;;;
2021/05/11 05:06:49;;;;;;;1.8;1.7;;;;;;;11;78.41602;94199.59;;;;
2021/05/11 05:07:49;;;;;;;1.8;1.7;;;;;;;11;78.41602;94199.59;;;;
2021/05/11 05:08:50;;;;;;;1.8;1.7;;;;;;;11;78.41602;94199.59;;;;
2021/05/11 05:09:50;;;;;;;1.8;1.7;;;;;;;11;78.41602;94199.59;;;;
2021/05/11 05:10:51;;;;;;;1.8;1.7;;;;;;;11;78.41602;94199.59;;;;
2021/05/11 05:11:52;;;;;;;2.6;2;;;;;;;11.41;78.04785;94213.2;;;;
2021/05/11 05:12:52;;;;;;;2.6;2;;;;;;;11.41;78.04785;94213.2;;;;
2021/05/11 05:13:53;;;;;;;2.6;2;;;;;;;11.41;78.04785;94213.2;;;;
2021/05/11 05:14:53;;;;;;;2.6;2;;;;;;;11.41;78.04785;94213.2;;;;
2021/05/11 05:15:53;;;;;;;2.6;2;;;;;;;11.41;78.04785;94213.2;;;;
2021/05/11 05:16:56;;;;;;;2.6;2;;;;;;;11.41;78.04785;94213.2;;;;
2021/05/11 05:17:56;;;;;;;2.6;2;;;;;;;11.41;78.04785;94213.2;;;;
2021/05/11 05:18:57;;;;;;;2.6;2;;;;;;;11.41;78.04785;94213.2;;;;
2021/05/11 05:19:57;;;;;;;2.6;2;;;;;;;11.41;78.04785;94213.2;;;;
2021/05/11 05:20:58;;;;;;;2.6;2;;;;;;;11.41;78.04785;94213.2;;;;
2021/05/11 05:21:59;;;;;;;2.6;2;;;;;;;11.41;78.04785;94213.2;;;;
2021/05/11 05:23:00;;;;;;;2.65;1.9;;;;;;;11.98;77.73242;94220.23;;;;
2021/05/11 05:24:06;;;;;;;2.65;1.9;;;;;;;11.98;77.73242;94220.23;;;;
2021/05/11 05:25:10;;;;;;;2.65;1.9;;;;;;;11.98;77.73242;94220.23;;;;
2021/05/11 05:26:15;;;;;;;2.65;1.9;;;;;;;11.98;77.73242;94220.23;;;;
2021/05/11 05:27:19;;;;;;;2.65;1.9;;;;;;;11.98;77.73242;94220.23;;;;
2021/05/11 05:28:20;;;;;;;2.65;1.9;;;;;;;11.98;77.73242;94220.23;;;;
2021/05/11 05:29:21;;;;;;;2.65;1.9;;;;;;;11.98;77.73242;94220.23;;;;
2021/05/11 05:30:21;;;;;;;2.65;1.9;;;;;;;11.98;77.73242;94220.23;;;;
2021/05/11 05:31:23;;;;;;;2.65;1.9;;;;;;;11.98;77.73242;94220.23;;;;
2021/05/11 05:32:23;;;;;;;2.65;1.9;;;;;;;11.98;77.73242;94220.23;;;;
2021/05/11 05:33:24;;;;;;;3.900001;1.9;;;;;;;12.65;76.76563;94203.64;;;;
2021/05/11 05:34:33;;;;;;;3.900001;1.9;;;;;;;12.65;76.76563;94203.64;;;;
2021/05/11 05:35:33;;;;;;;3.900001;1.9;;;;;;;12.65;76.76563;94203.64;;;;
2021/05/11 05:36:34;;;;;;;3.900001;1.9;;;;;;;12.65;76.76563;94203.64;;;;
2021/05/11 05:37:34;;;;;;;3.900001;1.9;;;;;;;12.65;76.76563;94203.64;;;;
2021/05/11 05:38:37;;;;;;;3.900001;1.9;;;;;;;12.65;76.76563;94203.64;;;;
2021/05/11 05:39:40;;;;;;;3.900001;1.9;;;;;;;12.65;76.76563;94203.64;;;;
2021/05/11 05:40:41;;;;;;;3.900001;1.9;;;;;;;12.65;76.76563;94203.64;;;;
2021/05/11 05:41:41;;;;;;;3.900001;1.9;;;;;;;12.65;76.76563;94203.64;;;;
2021/05/11 05:42:42;;;;;;;3.900001;1.9;;;;;;;12.65;76.76563;94203.64;;;;
2021/05/11 05:43:42;;;;;;;3.900001;1.9;;;;;;;12.65;76.76563;94203.64;;;;
2021/05/11 05:44:43;;;;;;;2.05;1.85;;;;;;;13.53;75.55371;94213.99;;;;
2021/05/11 05:45:43;;;;;;;2.05;1.85;;;;;;;13.53;75.55371;94213.99;;;;
2021/05/11 05:46:44;;;;;;;2.05;1.85;;;;;;;13.53;75.55371;94213.99;;;;
2021/05/11 05:47:51;;;;;;;2.05;1.85;;;;;;;13.53;75.55371;94213.99;;;;
2021/05/11 05:48:52;;;;;;;2.05;1.85;;;;;;;13.53;75.55371;94213.99;;;;
2021/05/11 05:49:59;;;;;;;2.05;1.85;;;;;;;13.53;75.55371;94213.99;;;;
2021/05/11 05:51:01;;;;;;;2.05;1.85;;;;;;;13.53;75.55371;94213.99;;;;
2021/05/11 05:52:04;;;;;;;2.05;1.85;;;;;;;13.53;75.55371;94213.99;;;;
2021/05/11 05:53:12;;;;;;;2.05;1.85;;;;;;;13.53;75.55371;94213.99;;;;
2021/05/11 05:54:12;;;;;;;2.05;1.85;;;;;;;13.53;75.55371;94213.99;;;;
2021/05/11 05:55:13;;;;;;;2.5;1.9;;;;;;;14.2;74.56836;94244.48;;;;
2021/05/11 05:56:15;;;;;;;2.5;1.9;;;;;;;14.2;74.56836;94244.48;;;;
2021/05/11 05:57:18;;;;;;;2.5;1.9;;;;;;;14.2;74.56836;94244.48;;;;
2021/05/11 05:58:19;;;;;;;2.5;1.9;;;;;;;14.2;74.56836;94244.48;;;;
2021/05/11 05:59:19;;;;;;;2.5;1.9;;;;;;;14.2;74.56836;94244.48;;;;
2021/05/11 06:00:20;;;;;;;2.5;1.9;;;;;;;14.2;74.56836;94244.48;;;;
2021/05/11 06:01:27;;;;;;;2.5;1.9;;;;;;;14.2;74.56836;94244.48;;;;
2021/05/11 06:02:28;;;;;;;2.5;1.9;;;;;;;14.2;74.56836;94244.48;;;;
2021/05/11 06:03:35;;;;;;;2.5;1.9;;;;;;;14.2;74.56836;94244.48;;;;
2021/05/11 06:04:37;;;;;;;2.5;1.9;;;;;;;14.2;74.56836;94244.48;;;;
2021/05/11 06:05:39;;;;;;;8.4;2.2;;;;;;;14.7;74.03516;94245.59;;;;
2021/05/11 06:06:40;;;;;;;8.4;2.2;;;;;;;14.7;74.03516;94245.59;;;;
2021/05/11 06:07:41;;;;;;;8.4;2.2;;;;;;;14.7;74.03516;94245.59;;;;
2021/05/11 06:08:43;;;;;;;8.4;2.2;;;;;;;14.7;74.03516;94245.59;;;;
2021/05/11 06:09:44;;;;;;;8.4;2.2;;;;;;;14.7;74.03516;94245.59;;;;
2021/05/11 06:10:44;;;;;;;8.4;2.2;;;;;;;14.7;74.03516;94245.59;;;;
2021/05/11 06:11:47;;;;;;;8.4;2.2;;;;;;;14.7;74.03516;94245.59;;;;
2021/05/11 06:12:54;;;;;;;8.4;2.2;;;;;;;14.7;74.03516;94245.59;;;;
2021/05/11 06:14:06;;;;;;;8.4;2.2;;;;;;;14.7;74.03516;94245.59;;;;
2021/05/11 06:20:19;;;;;;;5.05;2.1;;;;;;;15.22;73.25879;94248.67;;;;
2021/05/11 06:21:19;;;;;;;5.05;2.1;;;;;;;15.22;73.25879;94248.67;;;;
2021/05/11 06:22:20;;;;;;;5.05;2.1;;;;;;;15.22;73.25879;94248.67;;;;
2021/05/11 06:23:21;;;;;;;5.05;2.1;;;;;;;15.22;73.25879;94248.67;;;;
2021/05/11 06:24:22;;;;;;;5.05;2.1;;;;;;;15.22;73.25879;94248.67;;;;
2021/05/11 06:25:23;;;;;;;5.05;2.1;;;;;;;15.22;73.25879;94248.67;;;;
2021/05/11 06:26:23;;;;;;;5.05;2.1;;;;;;;15.22;73.25879;94248.67;;;;
2021/05/11 06:27:24;;;;;;;2.9;2.05;;;;;;;15.62;72.71875;94231.89;;;;
2021/05/11 06:28:25;;;;;;;2.9;2.05;;;;;;;15.62;72.71875;94231.89;;;;
2021/05/11 06:29:27;;;;;;;2.9;2.05;;;;;;;15.62;72.71875;94231.89;;;;
2021/05/11 06:30:29;;;;;;;2.9;2.05;;;;;;;15.62;72.71875;94231.89;;;;
2021/05/11 06:31:30;;;;;;;2.9;2.05;;;;;;;15.62;72.71875;94231.89;;;;
2021/05/11 06:32:32;;;;;;;2.9;2.05;;;;;;;15.62;72.71875;94231.89;;;;
2021/05/11 06:33:32;;;;;;;2.9;2.05;;;;;;;15.62;72.71875;94231.89;;;;
2021/05/11 06:34:33;;;;;;;2.9;2.05;;;;;;;15.62;72.71875;94231.89;;;;
2021/05/11 06:35:35;;;;;;;2.9;2.05;;;;;;;15.62;72.71875;94231.89;;;;
2021/05/11 06:36:35;;;;;;;2.9;2.05;;;;;;;15.62;72.71875;94231.89;;;;
2021/05/11 06:37:36;;;;;;;3.45;2.3;;;;;;;15.91;72.30859;94219.09;;;;
2021/05/11 06:38:37;;;;;;;3.45;2.3;;;;;;;15.91;72.30859;94219.09;;;;
2021/05/11 06:39:43;;;;;;;3.45;2.3;;;;;;;15.91;72.30859;94219.09;;;;
2021/05/11 06:40:43;;;;;;;3.45;2.3;;;;;;;15.91;72.30859;94219.09;;;;
2021/05/11 06:41:46;;;;;;;3.45;2.3;;;;;;;15.91;72.30859;94219.09;;;;
2021/05/11 06:42:47;;;;;;;3.45;2.3;;;;;;;15.91;72.30859;94219.09;;;;
2021/05/11 06:43:52;;;;;;;3.45;2.3;;;;;;;15.91;72.30859;94219.09;;;;
2021/05/11 06:45:04;;;;;;;3.45;2.3;;;;;;;15.91;72.30859;94219.09;;;;
2021/05/11 06:46:26;;;;;;;3.45;2.3;;;;;;;15.91;72.30859;94219.09;;;;
2021/05/11 06:47:32;;;;;;;3.45;2.3;;;;;;;15.91;72.30859;94219.09;;;;
2021/05/11 06:48:34;;;;;;;2.75;1.85;;;;;;;16.19;71.68457;94193.63;;;;
2021/05/11 06:49:48;;;;;;;2.75;1.85;;;;;;;16.19;71.68457;94193.63;;;;
2021/05/11 06:55:59;;;;;;;2.75;1.85;;;;;;;16.19;71.68457;94193.63;;;;
2021/05/11 06:56:59;;;;;;;2.75;1.85;;;;;;;16.19;71.68457;94193.63;;;;
2021/05/11 06:58:00;;;;;;;2.75;1.85;;;;;;;16.19;71.68457;94193.63;;;;